sensor_id;sensor_type;location;lat;lon;timestamp;P1;durP1;ratioP1;P2;durP2;ratioP2
24787;SDS011;12883;52.662;5.196;2022-11-13T00:02:02;28.43;;;28.33;;
24787;SDS011;12883;52.662;5.196;2022-11-13T00:04:27;30.03;;;29.83;;
24787;SDS011;12883;52.662;5.196;2022-11-13T00:06:53;29.00;;;28.90;;
24787;SDS011;12883;52.662;5.196;2022-11-13T00:09:18;28.80;;;28.70;;
24787;SDS011;12883;52.662;5.196;2022-11-13T00:11:43;29.20;;;29.00;;
24787;SDS011;12883;52.662;5.196;2022-11-13T00:14:09;29.70;;;29.57;;
24787;SDS011;12883;52.662;5.196;2022-11-13T00:16:34;29.13;;;29.03;;
24787;SDS011;12883;52.662;5.196;2022-11-13T00:18:59;29.13;;;29.03;;
24787;SDS011;12883;52.662;5.196;2022-11-13T00:21:25;30.27;;;30.13;;
24787;SDS011;12883;52.662;5.196;2022-11-13T00:23:51;31.70;;;31.50;;
24787;SDS011;12883;52.662;5.196;2022-11-13T00:26:27;31.17;;;30.97;;
24787;SDS011;12883;52.662;5.196;2022-11-13T00:28:54;30.73;;;30.60;;
24787;SDS011;12883;52.662;5.196;2022-11-13T00:31:22;31.80;;;31.70;;
24787;SDS011;12883;52.662;5.196;2022-11-13T00:33:47;29.50;;;29.40;;
24787;SDS011;12883;52.662;5.196;2022-11-13T00:36:14;29.93;;;29.83;;
24787;SDS011;12883;52.662;5.196;2022-11-13T00:38:43;30.83;;;30.73;;
24787;SDS011;12883;52.662;5.196;2022-11-13T00:41:09;30.70;;;30.60;;
24787;SDS011;12883;52.662;5.196;2022-11-13T00:43:35;30.20;;;30.10;;
24787;SDS011;12883;52.662;5.196;2022-11-13T00:46:00;31.23;;;31.03;;
24787;SDS011;12883;52.662;5.196;2022-11-13T00:48:26;29.60;;;29.50;;
24787;SDS011;12883;52.662;5.196;2022-11-13T00:50:51;29.93;;;29.83;;
24787;SDS011;12883;52.662;5.196;2022-11-13T00:53:17;30.90;;;30.70;;
24787;SDS011;12883;52.662;5.196;2022-11-13T00:55:43;30.43;;;30.33;;
24787;SDS011;12883;52.662;5.196;2022-11-13T00:58:09;29.70;;;29.60;;
24787;SDS011;12883;52.662;5.196;2022-11-13T01:00:35;30.73;;;30.63;;
24787;SDS011;12883;52.662;5.196;2022-11-13T01:03:01;29.43;;;29.33;;
24787;SDS011;12883;52.662;5.196;2022-11-13T01:05:26;29.33;;;29.23;;
24787;SDS011;12883;52.662;5.196;2022-11-13T01:07:51;29.77;;;29.67;;
24787;SDS011;12883;52.662;5.196;2022-11-13T01:10:17;30.00;;;29.90;;
24787;SDS011;12883;52.662;5.196;2022-11-13T01:12:42;29.13;;;29.03;;
24787;SDS011;12883;52.662;5.196;2022-11-13T01:15:08;30.13;;;30.03;;
24787;SDS011;12883;52.662;5.196;2022-11-13T01:17:33;30.90;;;30.70;;
24787;SDS011;12883;52.662;5.196;2022-11-13T01:19:59;31.53;;;31.33;;
24787;SDS011;12883;52.662;5.196;2022-11-13T01:22:24;30.90;;;30.80;;
24787;SDS011;12883;52.662;5.196;2022-11-13T01:24:49;29.63;;;29.47;;
24787;SDS011;12883;52.662;5.196;2022-11-13T01:27:15;31.87;;;31.70;;
24787;SDS011;12883;52.662;5.196;2022-11-13T01:29:40;31.30;;;31.10;;
24787;SDS011;12883;52.662;5.196;2022-11-13T01:32:06;31.03;;;30.93;;
24787;SDS011;12883;52.662;5.196;2022-11-13T01:34:31;30.80;;;30.60;;
24787;SDS011;12883;52.662;5.196;2022-11-13T01:36:57;30.43;;;30.33;;
24787;SDS011;12883;52.662;5.196;2022-11-13T01:39:22;30.33;;;30.23;;
24787;SDS011;12883;52.662;5.196;2022-11-13T01:41:48;28.17;;;28.07;;
24787;SDS011;12883;52.662;5.196;2022-11-13T01:44:14;30.63;;;30.53;;
24787;SDS011;12883;52.662;5.196;2022-11-13T01:46:42;31.43;;;31.23;;
24787;SDS011;12883;52.662;5.196;2022-11-13T01:49:19;29.37;;;29.27;;
24787;SDS011;12883;52.662;5.196;2022-11-13T01:52:07;30.17;;;30.07;;
24787;SDS011;12883;52.662;5.196;2022-11-13T01:54:38;28.67;;;28.57;;
24787;SDS011;12883;52.662;5.196;2022-11-13T01:57:07;29.67;;;29.57;;
24787;SDS011;12883;52.662;5.196;2022-11-13T01:59:34;28.83;;;28.73;;
24787;SDS011;12883;52.662;5.196;2022-11-13T02:02:03;29.10;;;29.00;;
24787;SDS011;12883;52.662;5.196;2022-11-13T02:04:28;27.83;;;27.73;;
24787;SDS011;12883;52.662;5.196;2022-11-13T02:07:16;29.77;;;29.67;;
24787;SDS011;12883;52.662;5.196;2022-11-13T02:09:44;27.67;;;27.57;;
24787;SDS011;12883;52.662;5.196;2022-11-13T02:12:13;27.23;;;27.13;;
24787;SDS011;12883;52.662;5.196;2022-11-13T02:14:43;28.30;;;28.20;;
24787;SDS011;12883;52.662;5.196;2022-11-13T02:17:17;28.07;;;27.97;;
24787;SDS011;12883;52.662;5.196;2022-11-13T02:19:47;28.77;;;28.67;;
24787;SDS011;12883;52.662;5.196;2022-11-13T02:25:07;30.93;;;30.83;;
24787;SDS011;12883;52.662;5.196;2022-11-13T02:27:41;31.83;;;31.73;;
24787;SDS011;12883;52.662;5.196;2022-11-13T02:30:13;32.77;;;32.57;;
24787;SDS011;12883;52.662;5.196;2022-11-13T02:32:46;31.33;;;31.17;;
24787;SDS011;12883;52.662;5.196;2022-11-13T02:35:17;31.30;;;31.20;;
24787;SDS011;12883;52.662;5.196;2022-11-13T02:37:46;32.30;;;32.20;;
24787;SDS011;12883;52.662;5.196;2022-11-13T02:40:11;32.07;;;31.97;;
24787;SDS011;12883;52.662;5.196;2022-11-13T02:42:37;31.70;;;31.60;;
24787;SDS011;12883;52.662;5.196;2022-11-13T02:45:03;32.10;;;31.93;;
24787;SDS011;12883;52.662;5.196;2022-11-13T02:47:30;31.50;;;31.40;;
24787;SDS011;12883;52.662;5.196;2022-11-13T02:49:56;32.07;;;31.97;;
24787;SDS011;12883;52.662;5.196;2022-11-13T02:52:21;31.57;;;31.47;;
24787;SDS011;12883;52.662;5.196;2022-11-13T02:54:46;30.27;;;30.17;;
24787;SDS011;12883;52.662;5.196;2022-11-13T02:57:12;31.47;;;31.37;;
24787;SDS011;12883;52.662;5.196;2022-11-13T02:59:37;30.53;;;30.43;;
24787;SDS011;12883;52.662;5.196;2022-11-13T03:02:02;29.67;;;29.57;;
24787;SDS011;12883;52.662;5.196;2022-11-13T03:04:28;30.27;;;30.17;;
24787;SDS011;12883;52.662;5.196;2022-11-13T03:06:53;30.30;;;30.20;;
24787;SDS011;12883;52.662;5.196;2022-11-13T03:09:19;28.30;;;28.20;;
24787;SDS011;12883;52.662;5.196;2022-11-13T03:11:44;28.53;;;28.43;;
24787;SDS011;12883;52.662;5.196;2022-11-13T03:14:09;29.30;;;29.20;;
24787;SDS011;12883;52.662;5.196;2022-11-13T03:16:35;29.80;;;29.70;;
24787;SDS011;12883;52.662;5.196;2022-11-13T03:19:00;31.37;;;31.27;;
24787;SDS011;12883;52.662;5.196;2022-11-13T03:21:26;29.67;;;29.57;;
24787;SDS011;12883;52.662;5.196;2022-11-13T03:23:52;30.70;;;30.60;;
24787;SDS011;12883;52.662;5.196;2022-11-13T03:26:18;31.63;;;31.53;;
24787;SDS011;12883;52.662;5.196;2022-11-13T03:28:44;30.07;;;29.97;;
24787;SDS011;12883;52.662;5.196;2022-11-13T03:31:10;30.60;;;30.50;;
24787;SDS011;12883;52.662;5.196;2022-11-13T03:33:35;30.27;;;30.17;;
24787;SDS011;12883;52.662;5.196;2022-11-13T03:36:01;30.97;;;30.87;;
24787;SDS011;12883;52.662;5.196;2022-11-13T03:38:26;31.43;;;31.33;;
24787;SDS011;12883;52.662;5.196;2022-11-13T03:40:51;32.57;;;32.47;;
24787;SDS011;12883;52.662;5.196;2022-11-13T03:43:17;33.43;;;33.33;;
24787;SDS011;12883;52.662;5.196;2022-11-13T03:45:43;35.37;;;35.17;;
24787;SDS011;12883;52.662;5.196;2022-11-13T03:48:10;33.20;;;33.10;;
24787;SDS011;12883;52.662;5.196;2022-11-13T03:50:36;33.57;;;33.37;;
24787;SDS011;12883;52.662;5.196;2022-11-13T03:53:01;34.90;;;34.70;;
24787;SDS011;12883;52.662;5.196;2022-11-13T03:55:28;33.67;;;33.57;;
24787;SDS011;12883;52.662;5.196;2022-11-13T03:57:53;34.47;;;34.37;;
24787;SDS011;12883;52.662;5.196;2022-11-13T04:00:19;33.87;;;33.77;;
24787;SDS011;12883;52.662;5.196;2022-11-13T04:02:45;34.27;;;34.17;;
24787;SDS011;12883;52.662;5.196;2022-11-13T04:05:10;33.27;;;33.17;;
24787;SDS011;12883;52.662;5.196;2022-11-13T04:07:36;33.03;;;32.90;;
24787;SDS011;12883;52.662;5.196;2022-11-13T04:10:01;34.53;;;34.33;;
24787;SDS011;12883;52.662;5.196;2022-11-13T04:12:27;31.63;;;31.53;;
24787;SDS011;12883;52.662;5.196;2022-11-13T04:14:52;33.13;;;33.03;;
24787;SDS011;12883;52.662;5.196;2022-11-13T04:17:17;32.40;;;32.30;;
24787;SDS011;12883;52.662;5.196;2022-11-13T04:19:42;32.40;;;32.30;;
24787;SDS011;12883;52.662;5.196;2022-11-13T04:22:08;32.53;;;32.43;;
24787;SDS011;12883;52.662;5.196;2022-11-13T04:24:34;33.10;;;33.00;;
24787;SDS011;12883;52.662;5.196;2022-11-13T04:26:59;32.77;;;32.63;;
24787;SDS011;12883;52.662;5.196;2022-11-13T04:29:25;34.53;;;34.33;;
24787;SDS011;12883;52.662;5.196;2022-11-13T04:31:50;31.77;;;31.67;;
24787;SDS011;12883;52.662;5.196;2022-11-13T04:34:15;33.40;;;33.30;;
24787;SDS011;12883;52.662;5.196;2022-11-13T04:36:41;33.63;;;33.43;;
24787;SDS011;12883;52.662;5.196;2022-11-13T04:39:06;33.30;;;33.10;;
24787;SDS011;12883;52.662;5.196;2022-11-13T04:41:32;33.50;;;33.40;;
24787;SDS011;12883;52.662;5.196;2022-11-13T04:44:15;32.20;;;32.10;;
24787;SDS011;12883;52.662;5.196;2022-11-13T04:46:41;33.33;;;33.23;;
24787;SDS011;12883;52.662;5.196;2022-11-13T04:49:06;32.77;;;32.67;;
24787;SDS011;12883;52.662;5.196;2022-11-13T04:51:31;34.17;;;34.07;;
24787;SDS011;12883;52.662;5.196;2022-11-13T04:53:57;34.47;;;34.37;;
24787;SDS011;12883;52.662;5.196;2022-11-13T04:56:22;33.30;;;33.17;;
24787;SDS011;12883;52.662;5.196;2022-11-13T04:58:47;32.37;;;32.27;;
24787;SDS011;12883;52.662;5.196;2022-11-13T05:01:13;34.10;;;34.00;;
24787;SDS011;12883;52.662;5.196;2022-11-13T05:03:38;33.27;;;33.17;;
24787;SDS011;12883;52.662;5.196;2022-11-13T05:06:04;32.10;;;32.00;;
24787;SDS011;12883;52.662;5.196;2022-11-13T05:08:30;34.60;;;34.50;;
24787;SDS011;12883;52.662;5.196;2022-11-13T05:10:56;34.10;;;34.00;;
24787;SDS011;12883;52.662;5.196;2022-11-13T05:13:21;35.50;;;35.40;;
24787;SDS011;12883;52.662;5.196;2022-11-13T05:15:46;36.17;;;35.97;;
24787;SDS011;12883;52.662;5.196;2022-11-13T05:18:12;34.70;;;34.60;;
24787;SDS011;12883;52.662;5.196;2022-11-13T05:20:37;36.63;;;36.43;;
24787;SDS011;12883;52.662;5.196;2022-11-13T05:23:03;35.57;;;35.37;;
24787;SDS011;12883;52.662;5.196;2022-11-13T05:25:28;36.27;;;36.07;;
24787;SDS011;12883;52.662;5.196;2022-11-13T05:27:56;36.50;;;36.30;;
24787;SDS011;12883;52.662;5.196;2022-11-13T05:30:22;35.07;;;34.97;;
24787;SDS011;12883;52.662;5.196;2022-11-13T05:32:48;34.23;;;34.13;;
24787;SDS011;12883;52.662;5.196;2022-11-13T05:35:13;34.80;;;34.70;;
24787;SDS011;12883;52.662;5.196;2022-11-13T05:37:38;35.73;;;35.63;;
24787;SDS011;12883;52.662;5.196;2022-11-13T05:40:04;34.67;;;34.53;;
24787;SDS011;12883;52.662;5.196;2022-11-13T05:42:30;35.57;;;35.40;;
24787;SDS011;12883;52.662;5.196;2022-11-13T05:44:55;34.27;;;34.17;;
24787;SDS011;12883;52.662;5.196;2022-11-13T05:47:21;34.13;;;34.03;;
24787;SDS011;12883;52.662;5.196;2022-11-13T05:49:46;35.17;;;34.97;;
24787;SDS011;12883;52.662;5.196;2022-11-13T05:52:11;35.80;;;35.67;;
24787;SDS011;12883;52.662;5.196;2022-11-13T05:54:37;34.00;;;33.90;;
24787;SDS011;12883;52.662;5.196;2022-11-13T05:57:02;34.03;;;33.93;;
24787;SDS011;12883;52.662;5.196;2022-11-13T05:59:28;35.17;;;34.97;;
24787;SDS011;12883;52.662;5.196;2022-11-13T06:01:53;35.23;;;35.13;;
24787;SDS011;12883;52.662;5.196;2022-11-13T06:04:18;34.23;;;34.13;;
24787;SDS011;12883;52.662;5.196;2022-11-13T06:06:44;34.33;;;34.13;;
24787;SDS011;12883;52.662;5.196;2022-11-13T06:09:12;33.70;;;33.60;;
24787;SDS011;12883;52.662;5.196;2022-11-13T06:11:41;34.07;;;33.97;;
24787;SDS011;12883;52.662;5.196;2022-11-13T06:14:06;34.60;;;34.40;;
24787;SDS011;12883;52.662;5.196;2022-11-13T06:16:35;34.23;;;34.13;;
24787;SDS011;12883;52.662;5.196;2022-11-13T06:19:04;35.00;;;34.80;;
24787;SDS011;12883;52.662;5.196;2022-11-13T06:21:32;33.97;;;33.87;;
24787;SDS011;12883;52.662;5.196;2022-11-13T06:23:59;33.93;;;33.83;;
24787;SDS011;12883;52.662;5.196;2022-11-13T06:26:26;33.03;;;32.93;;
24787;SDS011;12883;52.662;5.196;2022-11-13T06:28:54;39.33;;;39.13;;
24787;SDS011;12883;52.662;5.196;2022-11-13T06:31:20;33.73;;;33.63;;
24787;SDS011;12883;52.662;5.196;2022-11-13T06:33:50;32.27;;;32.17;;
24787;SDS011;12883;52.662;5.196;2022-11-13T06:36:20;32.90;;;32.80;;
24787;SDS011;12883;52.662;5.196;2022-11-13T06:38:48;32.53;;;32.43;;
24787;SDS011;12883;52.662;5.196;2022-11-13T06:41:14;32.23;;;32.13;;
24787;SDS011;12883;52.662;5.196;2022-11-13T06:43:40;32.90;;;32.77;;
24787;SDS011;12883;52.662;5.196;2022-11-13T06:46:08;30.67;;;30.57;;
24787;SDS011;12883;52.662;5.196;2022-11-13T06:48:37;30.87;;;30.77;;
24787;SDS011;12883;52.662;5.196;2022-11-13T06:51:02;29.83;;;29.73;;
24787;SDS011;12883;52.662;5.196;2022-11-13T06:53:30;30.33;;;30.23;;
24787;SDS011;12883;52.662;5.196;2022-11-13T06:55:56;29.30;;;29.20;;
24787;SDS011;12883;52.662;5.196;2022-11-13T06:58:22;29.40;;;29.30;;
24787;SDS011;12883;52.662;5.196;2022-11-13T07:00:48;29.03;;;28.93;;
24787;SDS011;12883;52.662;5.196;2022-11-13T07:03:14;28.20;;;28.10;;
24787;SDS011;12883;52.662;5.196;2022-11-13T07:05:44;29.43;;;29.33;;
24787;SDS011;12883;52.662;5.196;2022-11-13T07:08:10;29.03;;;28.93;;
24787;SDS011;12883;52.662;5.196;2022-11-13T07:10:36;27.80;;;27.70;;
24787;SDS011;12883;52.662;5.196;2022-11-13T07:13:01;29.00;;;28.90;;
24787;SDS011;12883;52.662;5.196;2022-11-13T07:15:27;29.17;;;29.07;;
24787;SDS011;12883;52.662;5.196;2022-11-13T07:17:52;29.60;;;29.50;;
24787;SDS011;12883;52.662;5.196;2022-11-13T07:20:17;28.03;;;27.93;;
24787;SDS011;12883;52.662;5.196;2022-11-13T07:22:43;28.77;;;28.67;;
24787;SDS011;12883;52.662;5.196;2022-11-13T07:25:08;28.37;;;28.27;;
24787;SDS011;12883;52.662;5.196;2022-11-13T07:27:34;26.53;;;26.43;;
24787;SDS011;12883;52.662;5.196;2022-11-13T07:29:59;27.13;;;27.03;;
24787;SDS011;12883;52.662;5.196;2022-11-13T07:32:24;25.20;;;25.10;;
24787;SDS011;12883;52.662;5.196;2022-11-13T07:34:50;25.13;;;25.03;;
24787;SDS011;12883;52.662;5.196;2022-11-13T07:37:15;25.37;;;25.27;;
24787;SDS011;12883;52.662;5.196;2022-11-13T07:39:41;24.53;;;24.43;;
24787;SDS011;12883;52.662;5.196;2022-11-13T07:42:06;24.47;;;24.37;;
24787;SDS011;12883;52.662;5.196;2022-11-13T07:44:31;24.60;;;24.50;;
24787;SDS011;12883;52.662;5.196;2022-11-13T07:46:57;24.00;;;23.90;;
24787;SDS011;12883;52.662;5.196;2022-11-13T07:49:22;23.27;;;23.17;;
24787;SDS011;12883;52.662;5.196;2022-11-13T07:51:47;23.57;;;23.47;;
24787;SDS011;12883;52.662;5.196;2022-11-13T07:54:13;23.97;;;23.87;;
24787;SDS011;12883;52.662;5.196;2022-11-13T07:56:38;23.37;;;23.27;;
24787;SDS011;12883;52.662;5.196;2022-11-13T07:59:03;23.17;;;23.07;;
24787;SDS011;12883;52.662;5.196;2022-11-13T08:01:29;23.37;;;23.27;;
24787;SDS011;12883;52.662;5.196;2022-11-13T08:03:54;23.40;;;23.30;;
24787;SDS011;12883;52.662;5.196;2022-11-13T08:06:19;23.80;;;23.70;;
24787;SDS011;12883;52.662;5.196;2022-11-13T08:08:46;22.87;;;22.77;;
24787;SDS011;12883;52.662;5.196;2022-11-13T08:11:12;23.07;;;22.97;;
24787;SDS011;12883;52.662;5.196;2022-11-13T08:13:38;22.03;;;21.93;;
24787;SDS011;12883;52.662;5.196;2022-11-13T08:16:03;22.87;;;22.77;;
24787;SDS011;12883;52.662;5.196;2022-11-13T08:18:29;22.47;;;22.37;;
24787;SDS011;12883;52.662;5.196;2022-11-13T08:20:55;22.80;;;22.70;;
24787;SDS011;12883;52.662;5.196;2022-11-13T08:23:21;20.80;;;20.70;;
24787;SDS011;12883;52.662;5.196;2022-11-13T08:25:47;21.67;;;21.57;;
24787;SDS011;12883;52.662;5.196;2022-11-13T08:28:12;21.90;;;21.80;;
24787;SDS011;12883;52.662;5.196;2022-11-13T08:30:38;21.77;;;21.67;;
24787;SDS011;12883;52.662;5.196;2022-11-13T08:33:03;21.43;;;21.33;;
24787;SDS011;12883;52.662;5.196;2022-11-13T08:35:29;22.20;;;22.10;;
24787;SDS011;12883;52.662;5.196;2022-11-13T08:37:59;20.17;;;20.07;;
24787;SDS011;12883;52.662;5.196;2022-11-13T08:40:25;20.70;;;20.60;;
24787;SDS011;12883;52.662;5.196;2022-11-13T08:42:51;20.47;;;20.37;;
24787;SDS011;12883;52.662;5.196;2022-11-13T08:45:16;21.70;;;21.60;;
24787;SDS011;12883;52.662;5.196;2022-11-13T08:47:41;20.30;;;20.20;;
24787;SDS011;12883;52.662;5.196;2022-11-13T08:50:07;20.43;;;20.33;;
24787;SDS011;12883;52.662;5.196;2022-11-13T08:52:32;20.73;;;20.63;;
24787;SDS011;12883;52.662;5.196;2022-11-13T08:54:58;18.83;;;18.83;;
24787;SDS011;12883;52.662;5.196;2022-11-13T08:57:23;19.10;;;19.10;;
24787;SDS011;12883;52.662;5.196;2022-11-13T08:59:48;17.67;;;17.67;;
24787;SDS011;12883;52.662;5.196;2022-11-13T09:02:14;18.67;;;18.57;;
24787;SDS011;12883;52.662;5.196;2022-11-13T09:04:40;18.80;;;18.80;;
24787;SDS011;12883;52.662;5.196;2022-11-13T09:07:06;18.30;;;18.20;;
24787;SDS011;12883;52.662;5.196;2022-11-13T09:09:32;17.57;;;17.57;;
24787;SDS011;12883;52.662;5.196;2022-11-13T09:11:58;16.37;;;16.37;;
24787;SDS011;12883;52.662;5.196;2022-11-13T09:14:24;18.07;;;17.97;;
24787;SDS011;12883;52.662;5.196;2022-11-13T09:16:49;15.93;;;15.93;;
24787;SDS011;12883;52.662;5.196;2022-11-13T09:19:14;16.77;;;16.77;;
24787;SDS011;12883;52.662;5.196;2022-11-13T09:21:40;16.40;;;16.40;;
24787;SDS011;12883;52.662;5.196;2022-11-13T09:24:05;15.63;;;15.63;;
24787;SDS011;12883;52.662;5.196;2022-11-13T09:26:31;14.37;;;14.37;;
24787;SDS011;12883;52.662;5.196;2022-11-13T09:28:57;14.30;;;14.30;;
24787;SDS011;12883;52.662;5.196;2022-11-13T09:31:23;14.03;;;14.03;;
24787;SDS011;12883;52.662;5.196;2022-11-13T09:33:48;13.57;;;13.57;;
24787;SDS011;12883;52.662;5.196;2022-11-13T09:36:14;13.87;;;13.87;;
24787;SDS011;12883;52.662;5.196;2022-11-13T09:38:40;13.70;;;13.70;;
24787;SDS011;12883;52.662;5.196;2022-11-13T09:41:10;13.37;;;13.37;;
24787;SDS011;12883;52.662;5.196;2022-11-13T09:46:17;13.27;;;13.27;;
24787;SDS011;12883;52.662;5.196;2022-11-13T09:48:58;12.83;;;12.83;;
24787;SDS011;12883;52.662;5.196;2022-11-13T09:51:29;11.93;;;11.93;;
24787;SDS011;12883;52.662;5.196;2022-11-13T09:53:57;12.90;;;12.90;;
24787;SDS011;12883;52.662;5.196;2022-11-13T09:56:39;12.23;;;12.23;;
24787;SDS011;12883;52.662;5.196;2022-11-13T10:04:32;12.10;;;12.10;;
24787;SDS011;12883;52.662;5.196;2022-11-13T10:07:04;12.23;;;12.23;;
24787;SDS011;12883;52.662;5.196;2022-11-13T10:12:25;12.17;;;12.17;;
24787;SDS011;12883;52.662;5.196;2022-11-13T10:14:54;11.80;;;11.80;;
24787;SDS011;12883;52.662;5.196;2022-11-13T10:17:26;11.67;;;11.67;;
24787;SDS011;12883;52.662;5.196;2022-11-13T10:20:04;11.33;;;11.33;;
24787;SDS011;12883;52.662;5.196;2022-11-13T10:22:37;11.37;;;11.37;;
24787;SDS011;12883;52.662;5.196;2022-11-13T10:25:10;11.30;;;11.30;;
24787;SDS011;12883;52.662;5.196;2022-11-13T10:27:39;11.10;;;11.10;;
24787;SDS011;12883;52.662;5.196;2022-11-13T10:30:14;11.57;;;11.57;;
24787;SDS011;12883;52.662;5.196;2022-11-13T10:32:41;11.03;;;11.03;;
24787;SDS011;12883;52.662;5.196;2022-11-13T10:38:03;10.77;;;10.77;;
24787;SDS011;12883;52.662;5.196;2022-11-13T10:40:31;10.57;;;10.57;;
24787;SDS011;12883;52.662;5.196;2022-11-13T10:45:37;10.33;;;10.33;;
24787;SDS011;12883;52.662;5.196;2022-11-13T10:48:04;10.10;;;10.10;;
24787;SDS011;12883;52.662;5.196;2022-11-13T10:50:30;9.93;;;9.93;;
24787;SDS011;12883;52.662;5.196;2022-11-13T10:52:57;9.87;;;9.87;;
24787;SDS011;12883;52.662;5.196;2022-11-13T10:55:43;10.70;;;10.70;;
24787;SDS011;12883;52.662;5.196;2022-11-13T10:58:13;10.20;;;10.20;;
24787;SDS011;12883;52.662;5.196;2022-11-13T11:00:40;10.83;;;10.83;;
24787;SDS011;12883;52.662;5.196;2022-11-13T11:03:21;10.53;;;10.53;;
24787;SDS011;12883;52.662;5.196;2022-11-13T11:05:56;10.53;;;10.53;;
24787;SDS011;12883;52.662;5.196;2022-11-13T11:08:27;10.40;;;10.40;;
24787;SDS011;12883;52.662;5.196;2022-11-13T11:11:17;11.27;;;11.27;;
24787;SDS011;12883;52.662;5.196;2022-11-13T11:16:50;10.00;;;10.00;;
24787;SDS011;12883;52.662;5.196;2022-11-13T11:19:17;10.13;;;10.13;;
24787;SDS011;12883;52.662;5.196;2022-11-13T11:21:47;11.17;;;11.17;;
24787;SDS011;12883;52.662;5.196;2022-11-13T11:24:22;10.77;;;10.77;;
24787;SDS011;12883;52.662;5.196;2022-11-13T11:32:35;11.17;;;11.17;;
24787;SDS011;12883;52.662;5.196;2022-11-13T11:35:13;10.77;;;10.77;;
24787;SDS011;12883;52.662;5.196;2022-11-13T11:40:29;10.67;;;10.67;;
24787;SDS011;12883;52.662;5.196;2022-11-13T11:45:32;10.80;;;10.80;;
24787;SDS011;12883;52.662;5.196;2022-11-13T11:48:01;11.37;;;11.37;;
24787;SDS011;12883;52.662;5.196;2022-11-13T11:56:38;11.30;;;11.30;;
24787;SDS011;12883;52.662;5.196;2022-11-13T11:59:33;10.90;;;10.90;;
24787;SDS011;12883;52.662;5.196;2022-11-13T12:18:13;9.10;;;9.10;;
24787;SDS011;12883;52.662;5.196;2022-11-13T12:36:46;8.60;;;8.60;;
24787;SDS011;12883;52.662;5.196;2022-11-13T12:42:00;8.80;;;8.80;;
24787;SDS011;12883;52.662;5.196;2022-11-13T12:44:37;8.23;;;8.23;;
24787;SDS011;12883;52.662;5.196;2022-11-13T12:47:19;8.23;;;8.23;;
24787;SDS011;12883;52.662;5.196;2022-11-13T12:49:44;8.97;;;8.97;;
24787;SDS011;12883;52.662;5.196;2022-11-13T12:54:46;8.60;;;8.60;;
24787;SDS011;12883;52.662;5.196;2022-11-13T12:59:41;9.23;;;9.23;;
24787;SDS011;12883;52.662;5.196;2022-11-13T13:07:26;8.60;;;8.60;;
24787;SDS011;12883;52.662;5.196;2022-11-13T13:12:59;8.03;;;8.03;;
24787;SDS011;12883;52.662;5.196;2022-11-13T13:15:45;8.43;;;8.43;;
24787;SDS011;12883;52.662;5.196;2022-11-13T13:20:57;9.00;;;9.00;;
24787;SDS011;12883;52.662;5.196;2022-11-13T13:23:27;8.60;;;8.60;;
24787;SDS011;12883;52.662;5.196;2022-11-13T13:28:30;8.67;;;8.67;;
24787;SDS011;12883;52.662;5.196;2022-11-13T13:31:00;8.30;;;8.30;;
24787;SDS011;12883;52.662;5.196;2022-11-13T13:36:31;8.97;;;8.97;;
24787;SDS011;12883;52.662;5.196;2022-11-13T13:39:19;8.60;;;8.60;;
24787;SDS011;12883;52.662;5.196;2022-11-13T13:45:01;9.03;;;9.03;;
24787;SDS011;12883;52.662;5.196;2022-11-13T13:47:40;8.97;;;8.97;;
24787;SDS011;12883;52.662;5.196;2022-11-13T13:50:13;9.00;;;9.00;;
24787;SDS011;12883;52.662;5.196;2022-11-13T13:52:41;9.20;;;9.20;;
24787;SDS011;12883;52.662;5.196;2022-11-13T13:58:06;8.97;;;8.97;;
24787;SDS011;12883;52.662;5.196;2022-11-13T14:00:34;9.20;;;9.20;;
24787;SDS011;12883;52.662;5.196;2022-11-13T14:03:00;10.20;;;10.20;;
24787;SDS011;12883;52.662;5.196;2022-11-13T14:05:31;10.47;;;10.47;;
24787;SDS011;12883;52.662;5.196;2022-11-13T14:07:59;9.80;;;9.80;;
24787;SDS011;12883;52.662;5.196;2022-11-13T14:10:31;9.50;;;9.50;;
24787;SDS011;12883;52.662;5.196;2022-11-13T14:12:57;8.87;;;8.87;;
24787;SDS011;12883;52.662;5.196;2022-11-13T14:15:26;9.60;;;9.60;;
24787;SDS011;12883;52.662;5.196;2022-11-13T14:18:06;9.20;;;9.20;;
24787;SDS011;12883;52.662;5.196;2022-11-13T14:20:38;9.40;;;9.40;;
24787;SDS011;12883;52.662;5.196;2022-11-13T14:23:11;9.90;;;9.90;;
24787;SDS011;12883;52.662;5.196;2022-11-13T14:25:42;8.93;;;8.93;;
24787;SDS011;12883;52.662;5.196;2022-11-13T14:28:14;9.60;;;9.60;;
24787;SDS011;12883;52.662;5.196;2022-11-13T14:30:40;8.93;;;8.93;;
24787;SDS011;12883;52.662;5.196;2022-11-13T14:33:10;9.07;;;9.07;;
24787;SDS011;12883;52.662;5.196;2022-11-13T14:35:48;9.30;;;9.30;;
24787;SDS011;12883;52.662;5.196;2022-11-13T14:38:17;8.60;;;8.60;;
24787;SDS011;12883;52.662;5.196;2022-11-13T14:40:46;9.60;;;9.60;;
24787;SDS011;12883;52.662;5.196;2022-11-13T14:43:16;9.80;;;9.80;;
24787;SDS011;12883;52.662;5.196;2022-11-13T14:45:52;9.80;;;9.80;;
24787;SDS011;12883;52.662;5.196;2022-11-13T14:48:29;9.23;;;9.23;;
24787;SDS011;12883;52.662;5.196;2022-11-13T14:51:00;9.00;;;9.00;;
24787;SDS011;12883;52.662;5.196;2022-11-13T14:56:08;8.10;;;8.10;;
24787;SDS011;12883;52.662;5.196;2022-11-13T14:58:40;8.37;;;8.37;;
24787;SDS011;12883;52.662;5.196;2022-11-13T15:03:49;8.57;;;8.57;;
24787;SDS011;12883;52.662;5.196;2022-11-13T15:06:19;7.57;;;7.57;;
24787;SDS011;12883;52.662;5.196;2022-11-13T15:08:49;8.80;;;8.80;;
24787;SDS011;12883;52.662;5.196;2022-11-13T15:11:19;9.10;;;9.10;;
24787;SDS011;12883;52.662;5.196;2022-11-13T15:13:46;8.80;;;8.80;;
24787;SDS011;12883;52.662;5.196;2022-11-13T15:16:12;8.33;;;8.33;;
24787;SDS011;12883;52.662;5.196;2022-11-13T15:24:58;9.20;;;9.20;;
24787;SDS011;12883;52.662;5.196;2022-11-13T15:27:24;8.50;;;8.50;;
24787;SDS011;12883;52.662;5.196;2022-11-13T15:29:49;8.60;;;8.60;;
24787;SDS011;12883;52.662;5.196;2022-11-13T15:32:14;8.47;;;8.47;;
24787;SDS011;12883;52.662;5.196;2022-11-13T15:34:40;9.07;;;9.07;;
24787;SDS011;12883;52.662;5.196;2022-11-13T15:37:12;8.00;;;8.00;;
24787;SDS011;12883;52.662;5.196;2022-11-13T15:39:40;8.57;;;8.57;;
24787;SDS011;12883;52.662;5.196;2022-11-13T15:42:09;8.43;;;8.43;;
24787;SDS011;12883;52.662;5.196;2022-11-13T15:44:37;8.80;;;8.80;;
24787;SDS011;12883;52.662;5.196;2022-11-13T15:47:04;8.00;;;8.00;;
24787;SDS011;12883;52.662;5.196;2022-11-13T15:49:49;7.90;;;7.90;;
24787;SDS011;12883;52.662;5.196;2022-11-13T15:52:14;7.83;;;7.83;;
24787;SDS011;12883;52.662;5.196;2022-11-13T15:54:40;7.37;;;7.37;;
24787;SDS011;12883;52.662;5.196;2022-11-13T15:57:07;7.60;;;7.60;;
24787;SDS011;12883;52.662;5.196;2022-11-13T15:59:40;7.70;;;7.70;;
24787;SDS011;12883;52.662;5.196;2022-11-13T16:02:07;7.70;;;7.70;;
24787;SDS011;12883;52.662;5.196;2022-11-13T16:04:33;7.87;;;7.87;;
24787;SDS011;12883;52.662;5.196;2022-11-13T16:07:00;8.10;;;8.10;;
24787;SDS011;12883;52.662;5.196;2022-11-13T16:09:26;7.47;;;7.47;;
24787;SDS011;12883;52.662;5.196;2022-11-13T16:11:51;7.83;;;7.83;;
24787;SDS011;12883;52.662;5.196;2022-11-13T16:14:16;8.23;;;8.23;;
24787;SDS011;12883;52.662;5.196;2022-11-13T16:16:42;8.53;;;8.53;;
24787;SDS011;12883;52.662;5.196;2022-11-13T16:19:11;8.60;;;8.60;;
24787;SDS011;12883;52.662;5.196;2022-11-13T16:21:37;8.47;;;8.47;;
24787;SDS011;12883;52.662;5.196;2022-11-13T16:24:03;9.00;;;9.00;;